createdAt,value
2019-03-29T00:05:49.650Z,16.70
2019-03-29T00:11:47.041Z,16.45
2019-03-29T00:20:56.638Z,17.10
2019-03-29T00:23:46.393Z,15.25
2019-03-29T00:35:56.846Z,24.12
2019-03-29T00:41:56.510Z,21.55
2019-03-29T00:44:57.351Z,19.23
2019-03-29T00:50:47.152Z,23.80
2019-03-29T00:53:31.798Z,26.53
2019-03-29T00:59:15.523Z,23.57
2019-03-29T01:01:59.841Z,24.97
2019-03-29T01:04:44.224Z,27.60
2019-03-29T01:07:28.766Z,28.95
2019-03-29T01:10:13.631Z,31.50
2019-03-29T01:16:10.869Z,26.43
2019-03-29T01:18:55.680Z,25.02
2019-03-29T01:21:41.716Z,29.73
2019-03-29T01:27:43.713Z,29.43
2019-03-29T01:33:43.875Z,32.05
2019-03-29T01:39:43.267Z,32.30
2019-03-29T01:42:48.864Z,33.07
2019-03-29T01:48:45.666Z,37.13
2019-03-29T01:51:29.574Z,38.60
2019-03-29T01:54:14.242Z,36.10
2019-03-29T01:56:58.840Z,43.00
2019-03-29T02:02:50.429Z,44.03
2019-03-29T02:05:34.432Z,44.07
2019-03-29T02:08:35.166Z,47.97
2019-03-29T02:17:48.187Z,47.17
2019-03-29T02:26:46.524Z,50.97
2019-03-29T02:32:38.651Z,54.08
2019-03-29T02:35:29.686Z,56.37
2019-03-29T02:38:14.443Z,56.10
2019-03-29T02:44:16.055Z,55.55
2019-03-29T02:47:13.059Z,52.20
2019-03-29T02:50:03.253Z,50.30
2019-03-29T02:52:50.053Z,59.63
2019-03-29T02:55:40.385Z,55.53
2019-03-29T02:58:30.550Z,57.67
2019-03-29T03:04:19.598Z,54.33
2019-03-29T03:07:08.123Z,49.93
2019-03-29T03:09:52.559Z,51.05
2019-03-29T03:12:37.737Z,48.50
2019-03-29T03:18:37.644Z,46.42
2019-03-29T03:21:42.284Z,49.77
2019-03-29T03:30:44.151Z,42.57
2019-03-29T03:33:29.144Z,54.67
2019-03-29T03:36:19.755Z,50.30
2019-03-29T03:39:09.810Z,42.77
2019-03-29T03:41:54.629Z,44.93
2019-03-29T03:47:51.071Z,47.80
2019-03-29T03:50:40.098Z,39.80
2019-03-29T03:53:29.734Z,43.57
2019-03-29T04:00:04.142Z,44.83
2019-03-29T04:05:56.670Z,42.10
2019-03-29T04:08:45.618Z,39.57
2019-03-29T04:11:19.229Z,44.40
2019-03-29T04:14:10.268Z,42.67
2019-03-29T04:16:55.038Z,46.58
2019-03-29T04:22:31.092Z,44.97
2019-03-29T04:25:16.586Z,43.75
2019-03-29T04:28:03.043Z,38.57
2019-03-29T04:30:48.181Z,44.30
2019-03-29T04:33:33.025Z,34.70
2019-03-29T04:36:19.034Z,43.43
2019-03-29T04:39:05.868Z,41.33
2019-03-29T04:41:51.029Z,41.45
2019-03-29T04:44:34.932Z,37.73
2019-03-29T04:47:23.439Z,45.73
2019-03-29T04:50:10.309Z,38.13
2019-03-29T04:55:57.078Z,42.67
2019-03-29T04:58:41.567Z,42.80
2019-03-29T05:01:33.168Z,41.75
2019-03-29T05:04:21.851Z,39.83
2019-03-29T05:07:06.770Z,40.20
2019-03-29T05:09:50.541Z,45.23
2019-03-29T05:12:34.952Z,43.27
2019-03-29T05:15:08.588Z,44.07
2019-03-29T05:17:55.019Z,40.93
2019-03-29T05:20:40.055Z,41.37
2019-03-29T05:23:25.179Z,38.27
2019-03-29T05:29:10.937Z,43.43
2019-03-29T05:31:55.421Z,41.27
2019-03-29T05:34:39.550Z,46.90
2019-03-29T05:37:25.833Z,48.00
2019-03-29T05:40:10.316Z,44.87
2019-03-29T05:42:54.645Z,43.60
2019-03-29T05:45:38.710Z,46.80
2019-03-29T05:48:23.071Z,49.03
2019-03-29T05:54:18.914Z,47.23
2019-03-29T05:57:02.735Z,45.95
2019-03-29T05:59:47.055Z,49.37
2019-03-29T06:02:33.425Z,47.38
2019-03-29T06:05:06.936Z,47.80
2019-03-29T06:14:09.713Z,44.80
2019-03-29T06:20:05.310Z,43.55
2019-03-29T06:22:49.637Z,45.73
2019-03-29T06:25:33.753Z,42.77
2019-03-29T06:28:19.956Z,41.70
2019-03-29T06:31:10.408Z,42.40
2019-03-29T06:33:54.880Z,42.15
2019-03-29T06:36:39.435Z,40.30
2019-03-29T06:39:24.607Z,38.80
2019-03-29T06:42:14.475Z,38.20
2019-03-29T06:45:02.167Z,38.63
2019-03-29T06:47:48.548Z,40.33
2019-03-29T06:50:32.788Z,34.60
2019-03-29T06:53:21.355Z,39.20
2019-03-29T06:56:05.196Z,39.13
2019-03-29T06:58:51.513Z,39.63
2019-03-29T07:01:42.022Z,37.63
2019-03-29T07:04:26.789Z,37.97
2019-03-29T07:10:18.538Z,38.43
2019-03-29T07:13:03.104Z,38.40
2019-03-29T07:15:52.428Z,33.57
2019-03-29T07:19:00.419Z,35.13
2019-03-29T07:21:45.103Z,32.63
2019-03-29T07:24:29.598Z,33.92
2019-03-29T07:27:12.811Z,37.13
2019-03-29T07:30:01.027Z,34.13
2019-03-29T07:35:53.363Z,35.03
2019-03-29T07:38:42.084Z,36.27
2019-03-29T07:53:52.267Z,28.85
2019-03-29T08:12:10.212Z,23.87
2019-03-29T08:14:54.787Z,22.80
2019-03-29T08:17:41.665Z,23.50
2019-03-29T08:20:43.571Z,21.00
2019-03-29T08:23:39.647Z,19.70
2019-03-29T08:39:00.520Z,23.73
2019-03-29T08:41:44.771Z,33.58
2019-03-29T08:44:31.254Z,24.37
2019-03-29T08:47:17.660Z,22.20
2019-03-29T08:53:12.654Z,23.60
2019-03-29T08:59:17.111Z,23.73
2019-03-29T09:02:12.122Z,25.20
2019-03-29T09:04:59.075Z,25.70
2019-03-29T09:10:53.624Z,23.30
2019-03-29T09:13:38.165Z,26.13
2019-03-29T09:19:49.659Z,27.23
2019-03-29T09:29:04.845Z,23.70
2019-03-29T09:31:49.163Z,23.13
2019-03-29T09:34:39.121Z,25.40
2019-03-29T09:40:31.441Z,24.20
2019-03-29T09:43:16.648Z,24.17
2019-03-29T10:08:48.473Z,22.37
2019-03-29T10:11:38.257Z,23.67
2019-03-29T10:14:22.440Z,24.23
2019-03-29T10:17:10.821Z,25.47
2019-03-29T10:19:55.730Z,24.43
2019-03-29T10:22:40.350Z,26.07
2019-03-29T10:25:30.588Z,28.20
2019-03-29T10:28:15.551Z,24.60
2019-03-29T10:31:00.018Z,24.83
2019-03-29T10:33:45.074Z,25.23
2019-03-29T10:36:34.786Z,27.17
2019-03-29T10:39:18.986Z,26.93
2019-03-29T10:42:02.129Z,27.23
2019-03-29T10:44:50.740Z,24.83
2019-03-29T10:50:45.377Z,25.97
2019-03-29T10:53:36.295Z,25.75
2019-03-29T10:59:28.151Z,23.33
2019-03-29T11:02:13.107Z,25.85
2019-03-29T11:04:58.892Z,26.87
2019-03-29T11:37:02.635Z,27.70
2019-03-29T11:46:05.411Z,28.77
2019-03-29T12:05:12.876Z,29.60
2019-03-29T12:11:18.004Z,26.93
2019-03-29T12:14:08.635Z,29.77
2019-03-29T12:20:03.495Z,30.08
2019-03-29T12:22:53.857Z,29.27
2019-03-29T12:25:43.986Z,28.93
2019-03-29T12:31:44.799Z,29.73
2019-03-29T12:34:48.495Z,29.17
2019-03-29T12:37:38.391Z,28.70
2019-03-29T12:40:28.497Z,28.50
2019-03-29T12:43:13.525Z,29.20
2019-03-29T12:49:14.732Z,32.63
2019-03-29T12:55:14.718Z,26.62
2019-03-29T12:57:49.011Z,28.37
2019-03-29T13:06:49.254Z,27.23
2019-03-29T13:13:00.575Z,29.37
2019-03-29T13:22:34.713Z,30.67
2019-03-29T13:25:46.453Z,28.32
2019-03-29T13:28:34.795Z,29.07
2019-03-29T13:31:21.100Z,29.60
2019-03-29T13:37:08.069Z,34.70
2019-03-29T13:39:52.467Z,31.50
2019-03-29T13:42:37.098Z,35.20
2019-03-29T13:45:22.278Z,31.60
2019-03-29T13:48:06.117Z,35.37
2019-03-29T13:50:50.232Z,32.50
2019-03-29T13:53:36.384Z,31.20
2019-03-29T13:56:20.573Z,30.90
2019-03-29T13:59:07.232Z,35.93
2019-03-29T14:01:52.034Z,34.70
2019-03-29T14:04:40.246Z,35.20
2019-03-29T14:07:24.965Z,29.13
2019-03-29T14:10:10.618Z,32.57
2019-03-29T14:12:55.065Z,36.83
2019-03-29T14:15:40.235Z,35.10
2019-03-29T14:18:25.118Z,36.77
2019-03-29T14:21:09.790Z,35.73
2019-03-29T14:23:54.592Z,31.77
2019-03-29T14:26:39.320Z,33.43
2019-03-29T14:29:24.111Z,33.10
2019-03-29T14:32:08.022Z,35.57
2019-03-29T14:34:52.754Z,32.50
2019-03-29T14:37:36.675Z,36.03
2019-03-29T14:40:21.360Z,33.17
2019-03-29T14:43:05.860Z,34.27
2019-03-29T14:45:50.141Z,35.43
2019-03-29T14:48:34.105Z,36.40
2019-03-29T14:51:18.287Z,33.90
2019-03-29T14:54:02.404Z,37.67
2019-03-29T14:56:48.064Z,33.90
2019-03-29T14:59:32.558Z,35.30
2019-03-29T15:02:16.991Z,33.13
2019-03-29T15:04:51.625Z,35.73
2019-03-29T15:07:35.913Z,30.50
2019-03-29T15:10:26.432Z,34.03
2019-03-29T15:13:24.571Z,34.77
2019-03-29T15:16:09.454Z,30.62
2019-03-29T15:18:54.323Z,34.27
2019-03-29T15:21:39.064Z,33.53
2019-03-29T15:24:24.092Z,31.73
2019-03-29T15:27:08.485Z,34.13
2019-03-29T15:29:52.993Z,35.03
2019-03-29T15:32:36.859Z,33.57
2019-03-29T15:35:21.884Z,37.55
2019-03-29T15:38:06.101Z,37.00
2019-03-29T15:40:50.151Z,34.43
2019-03-29T15:43:23.559Z,37.37
2019-03-29T15:46:08.328Z,37.50
2019-03-29T15:48:52.501Z,36.67
2019-03-29T15:51:42.603Z,39.05
2019-03-29T15:55:14.917Z,40.93
2019-03-29T15:57:59.328Z,34.63
2019-03-29T16:00:43.572Z,34.53
2019-03-29T16:06:33.881Z,39.08
2019-03-29T16:09:18.842Z,39.27
2019-03-29T16:12:03.262Z,42.20
2019-03-29T16:14:48.075Z,37.13
2019-03-29T16:17:32.060Z,38.80
2019-03-29T16:20:17.768Z,37.30
2019-03-29T16:23:02.447Z,40.30
2019-03-29T16:25:46.813Z,33.57
2019-03-29T16:28:31.072Z,37.90
2019-03-29T16:31:15.950Z,37.20
2019-03-29T16:34:00.971Z,35.43
2019-03-29T16:36:47.507Z,40.37
2019-03-29T16:39:32.239Z,41.40
2019-03-29T16:42:16.725Z,38.00
2019-03-29T16:45:00.391Z,40.38
2019-03-29T16:47:45.015Z,41.93
2019-03-29T16:50:29.433Z,40.50
2019-03-29T16:53:14.215Z,40.43
2019-03-29T16:55:48.463Z,40.07
2019-03-29T16:58:32.644Z,38.87
2019-03-29T17:01:19.271Z,42.25
2019-03-29T17:04:04.181Z,44.13
2019-03-29T17:06:48.812Z,43.27
2019-03-29T17:09:33.593Z,38.73
2019-03-29T17:12:18.073Z,38.83
2019-03-29T17:15:02.693Z,43.33
2019-03-29T17:18:08.052Z,39.43
2019-03-29T17:20:53.963Z,38.20
2019-03-29T17:23:37.978Z,41.13
2019-03-29T17:26:10.874Z,43.60
2019-03-29T17:28:56.387Z,44.17
2019-03-29T17:31:29.786Z,40.03
2019-03-29T17:34:14.197Z,39.85
2019-03-29T17:37:00.516Z,39.53
2019-03-29T17:39:52.520Z,37.67
2019-03-29T17:42:26.160Z,38.13
2019-03-29T17:45:10.958Z,35.97
2019-03-29T17:47:54.852Z,34.90
2019-03-29T17:50:38.824Z,36.30
2019-03-29T17:53:25.478Z,38.63
2019-03-29T17:56:10.326Z,38.47
2019-03-29T17:58:54.415Z,35.40
2019-03-29T18:01:39.483Z,38.93
2019-03-29T18:04:24.087Z,41.13
2019-03-29T18:07:07.992Z,44.87
2019-03-29T18:09:52.974Z,46.03
2019-03-29T18:12:43.195Z,44.33
2019-03-29T18:15:28.000Z,47.08
2019-03-29T18:18:13.233Z,43.40
2019-03-29T18:20:58.859Z,48.70
2019-03-29T18:23:43.608Z,48.60
2019-03-29T18:26:34.378Z,47.90
2019-03-29T18:29:20.881Z,48.47
2019-03-29T18:32:04.856Z,50.20
2019-03-29T18:34:49.720Z,54.23
2019-03-29T18:37:33.548Z,56.23
2019-03-29T18:40:16.581Z,53.80
2019-03-29T18:43:00.362Z,53.47
2019-03-29T18:45:45.121Z,59.13
2019-03-29T18:48:30.486Z,52.95
2019-03-29T18:51:14.417Z,55.77
2019-03-29T18:53:58.699Z,50.80
2019-03-29T18:56:42.997Z,54.30
2019-03-29T18:59:27.485Z,52.23
2019-03-29T19:02:12.208Z,55.73
2019-03-29T19:04:56.762Z,56.40
2019-03-29T19:07:42.640Z,52.20
2019-03-29T19:10:26.825Z,53.70
2019-03-29T19:13:11.140Z,61.83
2019-03-29T19:15:55.240Z,58.07
2019-03-29T19:18:43.158Z,54.10
2019-03-29T19:21:26.229Z,55.97
2019-03-29T19:24:09.885Z,57.33
2019-03-29T19:26:53.763Z,61.20
2019-03-29T19:29:38.359Z,61.53
2019-03-29T19:32:22.919Z,62.30
2019-03-29T19:35:09.114Z,59.67
2019-03-29T19:37:53.004Z,60.37
2019-03-29T19:40:37.279Z,60.40
2019-03-29T19:43:21.961Z,61.23
2019-03-29T19:46:06.504Z,60.03
2019-03-29T19:48:50.800Z,62.53
2019-03-29T19:51:37.047Z,59.03
2019-03-29T19:54:21.765Z,60.17
2019-03-29T19:57:06.565Z,60.67
2019-03-29T19:59:51.162Z,65.27
2019-03-29T20:02:35.180Z,63.87
2019-03-29T20:08:32.886Z,66.10
2019-03-29T20:11:06.356Z,65.80
2019-03-29T20:13:57.836Z,60.80
2019-03-29T20:16:42.383Z,61.95
2019-03-29T20:19:26.894Z,63.67
2019-03-29T20:22:11.713Z,68.80
2019-03-29T20:24:56.372Z,69.40
2019-03-29T20:27:29.859Z,69.97
2019-03-29T20:30:14.851Z,59.03
2019-03-29T20:32:59.270Z,60.07
2019-03-29T20:35:43.906Z,63.60
2019-03-29T20:38:27.765Z,68.67
2019-03-29T20:41:12.019Z,67.03
2019-03-29T20:43:56.800Z,69.50
2019-03-29T20:46:40.845Z,71.37
2019-03-29T20:49:25.257Z,71.60
2019-03-29T20:51:58.401Z,68.90
2019-03-29T20:54:42.315Z,73.97
2019-03-29T20:57:28.509Z,65.83
2019-03-29T21:00:13.241Z,73.07
2019-03-29T21:02:57.690Z,73.60
2019-03-29T21:05:43.676Z,76.90
2019-03-29T21:08:28.776Z,67.87
2019-03-29T21:11:13.995Z,75.28
2019-03-29T21:13:58.098Z,74.25
2019-03-29T21:16:46.231Z,67.87
2019-03-29T21:19:30.297Z,73.60
2019-03-29T21:22:14.933Z,73.77
2019-03-29T21:24:58.942Z,77.20
2019-03-29T21:27:43.115Z,75.97
2019-03-29T21:30:27.907Z,75.70
2019-03-29T21:33:14.309Z,74.13
2019-03-29T21:35:58.361Z,76.23
2019-03-29T21:38:42.922Z,71.63
2019-03-29T21:41:26.759Z,68.13
2019-03-29T21:44:10.896Z,77.63
2019-03-29T21:46:56.227Z,82.57
2019-03-29T21:49:40.530Z,81.28
2019-03-29T21:52:26.466Z,76.60
2019-03-29T21:55:10.376Z,73.12
2019-03-29T21:57:54.982Z,71.47
2019-03-29T22:00:43.093Z,71.33
2019-03-29T22:03:27.424Z,76.57
2019-03-29T22:06:11.586Z,71.57
2019-03-29T22:08:55.930Z,73.43
2019-03-29T22:11:40.506Z,73.30
2019-03-29T22:14:25.136Z,68.43
2019-03-29T22:17:09.000Z,71.35
2019-03-29T22:19:53.657Z,65.37
2019-03-29T22:22:37.542Z,69.83
2019-03-29T22:25:21.810Z,74.80
2019-03-29T22:28:05.777Z,77.13
2019-03-29T22:30:51.803Z,72.67
2019-03-29T22:33:35.934Z,71.47
2019-03-29T22:36:20.077Z,73.23
2019-03-29T22:39:05.225Z,72.67
2019-03-29T22:41:51.278Z,77.13
2019-03-29T22:44:35.526Z,72.10
2019-03-29T22:47:21.152Z,78.00
2019-03-29T22:50:05.681Z,70.05
2019-03-29T22:52:54.396Z,73.27
2019-03-29T22:55:39.158Z,76.13
2019-03-29T22:58:23.794Z,69.23
2019-03-29T23:01:10.948Z,71.20
2019-03-29T23:04:03.846Z,68.03
2019-03-29T23:06:48.205Z,77.03
2019-03-29T23:09:32.462Z,67.67
2019-03-29T23:12:17.118Z,65.43
2019-03-29T23:15:02.669Z,71.97
2019-03-29T23:17:49.146Z,67.87
2019-03-29T23:20:34.135Z,72.40
2019-03-29T23:23:20.716Z,72.00
2019-03-29T23:26:05.992Z,68.30
2019-03-29T23:28:50.129Z,82.53
2019-03-29T23:31:34.705Z,75.15
2019-03-29T23:34:20.056Z,74.80
2019-03-29T23:37:03.951Z,73.43
2019-03-29T23:39:48.190Z,74.00
2019-03-29T23:42:32.305Z,65.73
2019-03-29T23:45:18.255Z,66.97
2019-03-29T23:48:03.902Z,69.07
2019-03-29T23:50:37.078Z,65.52
2019-03-29T23:53:21.266Z,64.63
2019-03-29T23:56:06.280Z,65.65
2019-03-29T23:58:51.640Z,62.17
